New Miami, Ohio
Current Conditions -  °F | °C
As of 10:06 AM on Monday 24 Nov 2014 (Local Time) from KHAO Reporting Station
Heavy Rain Heavy Rain  
Wind Chill: 57°   Ceiling: 4700
Heat Index: 57°   Visibility: 1.7mi
Dew Point: 53°   Wind: 18mph
Humidity: 87%   Direction: 240°WSW
Pressure: 29.37"   Gusts: 33mph
Location:  39.4247°N, 84.5012°W
Report Text: KHAO 241506Z AUTO 24016G29KT 1 3/4SM +RA BR FEW024 BKN047 OVC060 14/12 A2937 RMK AO2 PK WND 25029/1502 PRESRR P0006 T01390117
Loading
Personal Weather Stations






























Interactive Weather Map New forecast layout! Learn more

10-Day Weather Forecast

Advertisements
Track Severe Weather on mobile